sensor_id;sensor_type;location;lat;lon;timestamp;temperature;humidity
2112;DHT22;1062;52.538;13.400;2023-08-17T00:01:25;20.10;99.90
2112;DHT22;1062;52.538;13.400;2023-08-17T00:03:50;20.00;99.90
2112;DHT22;1062;52.538;13.400;2023-08-17T00:06:16;20.00;99.90
2112;DHT22;1062;52.538;13.400;2023-08-17T00:08:42;20.00;99.90
2112;DHT22;1062;52.538;13.400;2023-08-17T00:11:08;20.00;99.90
2112;DHT22;1062;52.538;13.400;2023-08-17T00:13:34;19.90;99.90
2112;DHT22;1062;52.538;13.400;2023-08-17T00:16:00;19.90;99.90
2112;DHT22;1062;52.538;13.400;2023-08-17T00:18:26;19.90;99.90
2112;DHT22;1062;52.538;13.400;2023-08-17T00:20:51;19.80;99.90
2112;DHT22;1062;52.538;13.400;2023-08-17T00:23:17;19.80;99.90
2112;DHT22;1062;52.538;13.400;2023-08-17T00:25:43;19.80;99.90
2112;DHT22;1062;52.538;13.400;2023-08-17T00:28:08;19.80;99.90
2112;DHT22;1062;52.538;13.400;2023-08-17T00:30:34;19.70;99.90
2112;DHT22;1062;52.538;13.400;2023-08-17T00:33:02;19.70;99.90
2112;DHT22;1062;52.538;13.400;2023-08-17T00:35:28;19.60;99.90
2112;DHT22;1062;52.538;13.400;2023-08-17T00:37:53;19.60;99.90
2112;DHT22;1062;52.538;13.400;2023-08-17T00:40:19;19.60;99.90
2112;DHT22;1062;52.538;13.400;2023-08-17T00:42:45;19.60;99.90
2112;DHT22;1062;52.538;13.400;2023-08-17T00:45:10;19.50;99.90
2112;DHT22;1062;52.538;13.400;2023-08-17T00:47:36;19.40;99.90
2112;DHT22;1062;52.538;13.400;2023-08-17T00:50:03;19.40;99.90
2112;DHT22;1062;52.538;13.400;2023-08-17T00:52:30;19.40;99.90
2112;DHT22;1062;52.538;13.400;2023-08-17T00:54:58;19.30;99.90
2112;DHT22;1062;52.538;13.400;2023-08-17T00:57:24;19.30;99.90
2112;DHT22;1062;52.538;13.400;2023-08-17T00:59:50;19.30;99.90
2112;DHT22;1062;52.538;13.400;2023-08-17T01:02:17;19.20;99.90
2112;DHT22;1062;52.538;13.400;2023-08-17T01:04:43;19.20;99.90
2112;DHT22;1062;52.538;13.400;2023-08-17T01:07:08;19.20;99.90
2112;DHT22;1062;52.538;13.400;2023-08-17T01:09:34;19.20;99.90
2112;DHT22;1062;52.538;13.400;2023-08-17T01:12:13;19.20;99.90
2112;DHT22;1062;52.538;13.400;2023-08-17T01:17:26;19.20;99.90
2112;DHT22;1062;52.538;13.400;2023-08-17T01:19:54;19.20;99.90
2112;DHT22;1062;52.538;13.400;2023-08-17T01:22:22;19.10;99.90
2112;DHT22;1062;52.538;13.400;2023-08-17T01:24:50;19.10;99.90
2112;DHT22;1062;52.538;13.400;2023-08-17T01:27:23;19.10;99.90
2112;DHT22;1062;52.538;13.400;2023-08-17T01:29:48;19.10;99.90
2112;DHT22;1062;52.538;13.400;2023-08-17T01:35:45;19.00;99.90
2112;DHT22;1062;52.538;13.400;2023-08-17T01:38:16;19.00;99.90
2112;DHT22;1062;52.538;13.400;2023-08-17T01:40:44;19.00;99.90
2112;DHT22;1062;52.538;13.400;2023-08-17T01:43:11;19.00;99.90
2112;DHT22;1062;52.538;13.400;2023-08-17T01:45:37;19.00;99.90
2112;DHT22;1062;52.538;13.400;2023-08-17T01:48:03;19.00;99.90
2112;DHT22;1062;52.538;13.400;2023-08-17T01:50:29;19.00;99.90
2112;DHT22;1062;52.538;13.400;2023-08-17T01:52:54;19.00;99.90
2112;DHT22;1062;52.538;13.400;2023-08-17T01:55:21;18.90;99.90
2112;DHT22;1062;52.538;13.400;2023-08-17T01:57:48;18.90;99.90
2112;DHT22;1062;52.538;13.400;2023-08-17T02:00:14;18.90;99.90
2112;DHT22;1062;52.538;13.400;2023-08-17T02:02:40;18.90;99.90
2112;DHT22;1062;52.538;13.400;2023-08-17T02:05:06;18.90;99.90
2112;DHT22;1062;52.538;13.400;2023-08-17T02:07:32;18.90;99.90
2112;DHT22;1062;52.538;13.400;2023-08-17T02:09:58;18.90;99.90
2112;DHT22;1062;52.538;13.400;2023-08-17T02:12:24;18.90;99.90
2112;DHT22;1062;52.538;13.400;2023-08-17T02:14:50;18.80;99.90
2112;DHT22;1062;52.538;13.400;2023-08-17T02:17:15;18.80;99.90
2112;DHT22;1062;52.538;13.400;2023-08-17T02:19:44;18.80;99.90
2112;DHT22;1062;52.538;13.400;2023-08-17T02:22:10;18.70;99.90
2112;DHT22;1062;52.538;13.400;2023-08-17T02:24:36;18.70;99.90
2112;DHT22;1062;52.538;13.400;2023-08-17T02:27:02;18.60;99.90
2112;DHT22;1062;52.538;13.400;2023-08-17T02:29:28;18.60;99.90
2112;DHT22;1062;52.538;13.400;2023-08-17T02:31:53;18.60;99.90
2112;DHT22;1062;52.538;13.400;2023-08-17T02:34:19;18.60;99.90
2112;DHT22;1062;52.538;13.400;2023-08-17T02:36:44;18.50;99.90
2112;DHT22;1062;52.538;13.400;2023-08-17T02:39:10;18.50;99.90
2112;DHT22;1062;52.538;13.400;2023-08-17T02:41:36;18.50;99.90
2112;DHT22;1062;52.538;13.400;2023-08-17T02:44:02;18.50;99.90
2112;DHT22;1062;52.538;13.400;2023-08-17T02:46:27;18.50;99.90
2112;DHT22;1062;52.538;13.400;2023-08-17T02:48:53;18.50;99.90
2112;DHT22;1062;52.538;13.400;2023-08-17T02:51:19;18.50;99.90
2112;DHT22;1062;52.538;13.400;2023-08-17T02:53:44;18.50;99.90
2112;DHT22;1062;52.538;13.400;2023-08-17T02:56:10;18.50;99.90
2112;DHT22;1062;52.538;13.400;2023-08-17T02:58:38;18.60;99.90
2112;DHT22;1062;52.538;13.400;2023-08-17T03:01:07;18.50;99.90
2112;DHT22;1062;52.538;13.400;2023-08-17T03:03:34;18.60;99.90
2112;DHT22;1062;52.538;13.400;2023-08-17T03:06:00;18.60;99.90
2112;DHT22;1062;52.538;13.400;2023-08-17T03:08:26;18.60;99.90
2112;DHT22;1062;52.538;13.400;2023-08-17T03:10:51;18.60;99.90
2112;DHT22;1062;52.538;13.400;2023-08-17T03:13:17;18.60;99.90
2112;DHT22;1062;52.538;13.400;2023-08-17T03:15:43;18.60;99.90
2112;DHT22;1062;52.538;13.400;2023-08-17T03:18:08;18.60;99.90
2112;DHT22;1062;52.538;13.400;2023-08-17T03:20:34;18.70;99.90
2112;DHT22;1062;52.538;13.400;2023-08-17T03:22:59;18.70;99.90
2112;DHT22;1062;52.538;13.400;2023-08-17T03:25:25;18.70;99.90
2112;DHT22;1062;52.538;13.400;2023-08-17T03:27:51;18.60;99.90
2112;DHT22;1062;52.538;13.400;2023-08-17T03:30:16;18.70;99.90
2112;DHT22;1062;52.538;13.400;2023-08-17T03:32:42;18.60;99.90
2112;DHT22;1062;52.538;13.400;2023-08-17T03:35:08;18.60;99.90
2112;DHT22;1062;52.538;13.400;2023-08-17T03:37:34;18.60;99.90
2112;DHT22;1062;52.538;13.400;2023-08-17T03:39:59;18.50;99.90
2112;DHT22;1062;52.538;13.400;2023-08-17T03:42:26;18.50;99.90
2112;DHT22;1062;52.538;13.400;2023-08-17T03:44:52;18.40;99.90
2112;DHT22;1062;52.538;13.400;2023-08-17T03:47:18;18.40;99.90
2112;DHT22;1062;52.538;13.400;2023-08-17T03:49:43;18.40;99.90
2112;DHT22;1062;52.538;13.400;2023-08-17T03:52:09;18.40;99.90
2112;DHT22;1062;52.538;13.400;2023-08-17T03:54:36;18.40;99.90
2112;DHT22;1062;52.538;13.400;2023-08-17T03:57:01;18.40;99.90
2112;DHT22;1062;52.538;13.400;2023-08-17T03:59:27;18.40;99.90
2112;DHT22;1062;52.538;13.400;2023-08-17T04:01:53;18.40;99.90
2112;DHT22;1062;52.538;13.400;2023-08-17T04:04:19;18.40;99.90
2112;DHT22;1062;52.538;13.400;2023-08-17T04:06:45;18.40;99.90
2112;DHT22;1062;52.538;13.400;2023-08-17T04:09:10;18.50;99.90
2112;DHT22;1062;52.538;13.400;2023-08-17T04:11:36;18.40;99.90
2112;DHT22;1062;52.538;13.400;2023-08-17T04:14:03;18.40;99.90
2112;DHT22;1062;52.538;13.400;2023-08-17T04:16:28;18.40;99.90
2112;DHT22;1062;52.538;13.400;2023-08-17T04:18:54;18.50;99.90
2112;DHT22;1062;52.538;13.400;2023-08-17T04:21:19;18.50;99.90
2112;DHT22;1062;52.538;13.400;2023-08-17T04:23:45;18.50;99.90
2112;DHT22;1062;52.538;13.400;2023-08-17T04:26:11;18.50;99.90
2112;DHT22;1062;52.538;13.400;2023-08-17T04:28:37;18.50;99.90
2112;DHT22;1062;52.538;13.400;2023-08-17T04:31:02;18.50;99.90
2112;DHT22;1062;52.538;13.400;2023-08-17T04:33:28;18.50;99.90
2112;DHT22;1062;52.538;13.400;2023-08-17T04:35:54;18.60;99.90
2112;DHT22;1062;52.538;13.400;2023-08-17T04:38:19;18.60;99.90
2112;DHT22;1062;52.538;13.400;2023-08-17T04:40:45;18.60;99.90
2112;DHT22;1062;52.538;13.400;2023-08-17T04:43:11;18.70;99.90
2112;DHT22;1062;52.538;13.400;2023-08-17T04:45:36;18.70;99.90
2112;DHT22;1062;52.538;13.400;2023-08-17T04:48:02;18.80;99.90
2112;DHT22;1062;52.538;13.400;2023-08-17T04:50:28;18.90;99.90
2112;DHT22;1062;52.538;13.400;2023-08-17T04:52:53;18.90;99.90
2112;DHT22;1062;52.538;13.400;2023-08-17T04:55:19;18.90;99.90
2112;DHT22;1062;52.538;13.400;2023-08-17T04:57:44;19.00;99.90
2112;DHT22;1062;52.538;13.400;2023-08-17T05:00:11;19.10;99.90
2112;DHT22;1062;52.538;13.400;2023-08-17T05:02:37;19.10;99.90
2112;DHT22;1062;52.538;13.400;2023-08-17T05:05:05;19.20;99.90
2112;DHT22;1062;52.538;13.400;2023-08-17T05:07:31;19.30;99.90
2112;DHT22;1062;52.538;13.400;2023-08-17T05:09:56;19.30;99.90
2112;DHT22;1062;52.538;13.400;2023-08-17T05:12:22;19.30;99.90
2112;DHT22;1062;52.538;13.400;2023-08-17T05:14:48;19.40;99.90
2112;DHT22;1062;52.538;13.400;2023-08-17T05:17:13;19.40;99.90
2112;DHT22;1062;52.538;13.400;2023-08-17T05:19:39;19.40;99.90
2112;DHT22;1062;52.538;13.400;2023-08-17T05:22:11;19.40;99.90
2112;DHT22;1062;52.538;13.400;2023-08-17T05:24:37;19.50;99.90
2112;DHT22;1062;52.538;13.400;2023-08-17T05:27:03;19.60;99.90
2112;DHT22;1062;52.538;13.400;2023-08-17T05:29:28;19.60;99.90
2112;DHT22;1062;52.538;13.400;2023-08-17T05:31:54;19.60;99.90
2112;DHT22;1062;52.538;13.400;2023-08-17T05:34:19;19.90;99.90
2112;DHT22;1062;52.538;13.400;2023-08-17T05:36:45;20.10;99.90
2112;DHT22;1062;52.538;13.400;2023-08-17T05:39:11;20.20;99.90
2112;DHT22;1062;52.538;13.400;2023-08-17T05:41:36;20.40;99.90
2112;DHT22;1062;52.538;13.400;2023-08-17T05:44:02;20.50;99.90
2112;DHT22;1062;52.538;13.400;2023-08-17T05:46:28;20.50;99.90
2112;DHT22;1062;52.538;13.400;2023-08-17T05:48:54;20.40;99.90
2112;DHT22;1062;52.538;13.400;2023-08-17T05:51:19;20.40;99.90
2112;DHT22;1062;52.538;13.400;2023-08-17T05:53:45;20.40;99.90
2112;DHT22;1062;52.538;13.400;2023-08-17T05:56:10;20.30;99.90
2112;DHT22;1062;52.538;13.400;2023-08-17T05:58:36;20.30;99.90
2112;DHT22;1062;52.538;13.400;2023-08-17T06:01:12;20.40;99.90
2112;DHT22;1062;52.538;13.400;2023-08-17T06:03:38;20.40;99.90
2112;DHT22;1062;52.538;13.400;2023-08-17T06:06:04;20.50;99.90
2112;DHT22;1062;52.538;13.400;2023-08-17T06:08:30;20.60;99.90
2112;DHT22;1062;52.538;13.400;2023-08-17T06:10:56;20.50;99.90
2112;DHT22;1062;52.538;13.400;2023-08-17T06:13:22;20.60;99.90
2112;DHT22;1062;52.538;13.400;2023-08-17T06:15:48;20.40;99.90
2112;DHT22;1062;52.538;13.400;2023-08-17T06:18:14;20.40;99.90
2112;DHT22;1062;52.538;13.400;2023-08-17T06:20:39;20.50;99.90
2112;DHT22;1062;52.538;13.400;2023-08-17T06:23:05;20.40;99.90
2112;DHT22;1062;52.538;13.400;2023-08-17T06:25:30;20.50;99.90
2112;DHT22;1062;52.538;13.400;2023-08-17T06:27:56;20.60;99.90
2112;DHT22;1062;52.538;13.400;2023-08-17T06:30:22;20.80;99.90
2112;DHT22;1062;52.538;13.400;2023-08-17T06:32:47;20.80;99.90
2112;DHT22;1062;52.538;13.400;2023-08-17T06:35:13;20.70;99.90
2112;DHT22;1062;52.538;13.400;2023-08-17T06:37:39;20.80;99.90
2112;DHT22;1062;52.538;13.400;2023-08-17T06:40:05;20.70;99.90
2112;DHT22;1062;52.538;13.400;2023-08-17T06:42:31;20.70;99.90
2112;DHT22;1062;52.538;13.400;2023-08-17T06:44:57;20.60;99.90
2112;DHT22;1062;52.538;13.400;2023-08-17T06:47:23;20.60;99.90
2112;DHT22;1062;52.538;13.400;2023-08-17T06:49:49;20.80;99.90
2112;DHT22;1062;52.538;13.400;2023-08-17T06:52:14;21.00;99.90
2112;DHT22;1062;52.538;13.400;2023-08-17T06:54:40;21.20;99.90
2112;DHT22;1062;52.538;13.400;2023-08-17T06:57:06;21.10;99.90
2112;DHT22;1062;52.538;13.400;2023-08-17T06:59:32;21.10;99.90
2112;DHT22;1062;52.538;13.400;2023-08-17T07:02:01;21.20;99.90
2112;DHT22;1062;52.538;13.400;2023-08-17T07:04:26;21.10;99.90
2112;DHT22;1062;52.538;13.400;2023-08-17T07:06:52;21.30;99.90
2112;DHT22;1062;52.538;13.400;2023-08-17T07:09:17;21.40;99.90
2112;DHT22;1062;52.538;13.400;2023-08-17T07:11:44;21.50;99.90
2112;DHT22;1062;52.538;13.400;2023-08-17T07:14:09;21.60;99.90
2112;DHT22;1062;52.538;13.400;2023-08-17T07:16:35;21.90;99.90
2112;DHT22;1062;52.538;13.400;2023-08-17T07:19:01;21.90;99.90
2112;DHT22;1062;52.538;13.400;2023-08-17T07:21:27;21.80;99.90
2112;DHT22;1062;52.538;13.400;2023-08-17T07:23:54;21.70;99.90
2112;DHT22;1062;52.538;13.400;2023-08-17T07:26:20;21.60;99.90
2112;DHT22;1062;52.538;13.400;2023-08-17T07:28:46;21.50;99.90
2112;DHT22;1062;52.538;13.400;2023-08-17T07:31:12;21.50;99.90
2112;DHT22;1062;52.538;13.400;2023-08-17T07:33:39;21.40;99.90
2112;DHT22;1062;52.538;13.400;2023-08-17T07:36:04;21.50;99.90
2112;DHT22;1062;52.538;13.400;2023-08-17T07:38:30;21.60;99.90
2112;DHT22;1062;52.538;13.400;2023-08-17T07:40:56;21.70;99.90
2112;DHT22;1062;52.538;13.400;2023-08-17T07:43:22;21.70;99.90
2112;DHT22;1062;52.538;13.400;2023-08-17T07:45:56;21.60;99.90
2112;DHT22;1062;52.538;13.400;2023-08-17T07:48:22;21.60;99.90
2112;DHT22;1062;52.538;13.400;2023-08-17T07:50:52;21.70;99.90
2112;DHT22;1062;52.538;13.400;2023-08-17T07:53:18;21.80;99.90
2112;DHT22;1062;52.538;13.400;2023-08-17T07:55:44;22.10;99.90
2112;DHT22;1062;52.538;13.400;2023-08-17T07:58:10;22.00;99.90
2112;DHT22;1062;52.538;13.400;2023-08-17T08:00:36;22.00;99.90
2112;DHT22;1062;52.538;13.400;2023-08-17T08:03:01;22.00;99.90
2112;DHT22;1062;52.538;13.400;2023-08-17T08:05:27;22.20;99.90
2112;DHT22;1062;52.538;13.400;2023-08-17T08:07:53;22.40;99.90
2112;DHT22;1062;52.538;13.400;2023-08-17T08:10:19;22.50;99.90
2112;DHT22;1062;52.538;13.400;2023-08-17T08:12:44;22.60;99.90
2112;DHT22;1062;52.538;13.400;2023-08-17T08:15:10;22.60;99.90
2112;DHT22;1062;52.538;13.400;2023-08-17T08:17:35;22.70;99.90
2112;DHT22;1062;52.538;13.400;2023-08-17T08:20:02;22.90;99.90
2112;DHT22;1062;52.538;13.400;2023-08-17T08:22:28;22.90;99.90
2112;DHT22;1062;52.538;13.400;2023-08-17T08:24:53;23.40;99.90
2112;DHT22;1062;52.538;13.400;2023-08-17T08:27:19;24.00;99.90
2112;DHT22;1062;52.538;13.400;2023-08-17T08:29:45;24.60;99.90
2112;DHT22;1062;52.538;13.400;2023-08-17T08:32:10;24.80;99.90
2112;DHT22;1062;52.538;13.400;2023-08-17T08:34:36;25.10;99.90
2112;DHT22;1062;52.538;13.400;2023-08-17T08:37:02;25.10;99.90
2112;DHT22;1062;52.538;13.400;2023-08-17T08:39:28;25.10;99.90
2112;DHT22;1062;52.538;13.400;2023-08-17T08:41:53;24.80;99.90
2112;DHT22;1062;52.538;13.400;2023-08-17T08:44:19;24.60;99.90
2112;DHT22;1062;52.538;13.400;2023-08-17T08:46:45;24.10;99.90
2112;DHT22;1062;52.538;13.400;2023-08-17T08:49:12;23.80;99.90
2112;DHT22;1062;52.538;13.400;2023-08-17T08:51:43;23.60;99.90
2112;DHT22;1062;52.538;13.400;2023-08-17T08:54:13;23.40;99.90
2112;DHT22;1062;52.538;13.400;2023-08-17T08:56:43;23.10;99.90
2112;DHT22;1062;52.538;13.400;2023-08-17T08:59:10;22.80;99.90
2112;DHT22;1062;52.538;13.400;2023-08-17T09:01:37;22.70;99.90
2112;DHT22;1062;52.538;13.400;2023-08-17T09:04:04;22.70;99.90
2112;DHT22;1062;52.538;13.400;2023-08-17T09:06:30;22.70;99.90
2112;DHT22;1062;52.538;13.400;2023-08-17T09:08:57;22.50;99.90
2112;DHT22;1062;52.538;13.400;2023-08-17T09:11:24;22.60;99.90
2112;DHT22;1062;52.538;13.400;2023-08-17T09:13:50;22.60;99.90
2112;DHT22;1062;52.538;13.400;2023-08-17T09:16:15;22.50;99.90
2112;DHT22;1062;52.538;13.400;2023-08-17T09:18:42;22.30;99.90
2112;DHT22;1062;52.538;13.400;2023-08-17T09:21:07;22.30;99.90
2112;DHT22;1062;52.538;13.400;2023-08-17T09:23:33;22.40;99.90
2112;DHT22;1062;52.538;13.400;2023-08-17T09:26:07;22.40;99.90
2112;DHT22;1062;52.538;13.400;2023-08-17T09:28:33;22.50;99.90
2112;DHT22;1062;52.538;13.400;2023-08-17T09:31:03;22.60;99.90
2112;DHT22;1062;52.538;13.400;2023-08-17T09:33:30;22.80;99.90
2112;DHT22;1062;52.538;13.400;2023-08-17T09:35:57;22.90;99.90
2112;DHT22;1062;52.538;13.400;2023-08-17T09:38:23;23.00;99.90
2112;DHT22;1062;52.538;13.400;2023-08-17T09:40:49;23.10;99.90
2112;DHT22;1062;52.538;13.400;2023-08-17T09:43:16;23.10;99.90
2112;DHT22;1062;52.538;13.400;2023-08-17T09:45:43;23.10;99.90
2112;DHT22;1062;52.538;13.400;2023-08-17T09:48:17;23.20;99.90
2112;DHT22;1062;52.538;13.400;2023-08-17T09:50:44;23.10;99.90
2112;DHT22;1062;52.538;13.400;2023-08-17T09:53:14;23.20;99.90
2112;DHT22;1062;52.538;13.400;2023-08-17T09:55:41;23.40;99.90
2112;DHT22;1062;52.538;13.400;2023-08-17T09:58:08;23.40;99.90
2112;DHT22;1062;52.538;13.400;2023-08-17T10:00:34;23.40;99.90
2112;DHT22;1062;52.538;13.400;2023-08-17T10:03:04;23.40;99.90
2112;DHT22;1062;52.538;13.400;2023-08-17T10:05:38;23.50;99.90
2112;DHT22;1062;52.538;13.400;2023-08-17T10:08:04;23.60;99.90
2112;DHT22;1062;52.538;13.400;2023-08-17T10:10:35;23.70;99.90
2112;DHT22;1062;52.538;13.400;2023-08-17T10:15:34;23.70;99.90
2112;DHT22;1062;52.538;13.400;2023-08-17T10:21:21;23.50;99.90
2112;DHT22;1062;52.538;13.400;2023-08-17T10:23:48;23.40;99.90
2112;DHT22;1062;52.538;13.400;2023-08-17T10:26:14;23.30;99.90
2112;DHT22;1062;52.538;13.400;2023-08-17T10:28:41;23.10;99.90
2112;DHT22;1062;52.538;13.400;2023-08-17T10:31:07;23.00;99.90
2112;DHT22;1062;52.538;13.400;2023-08-17T10:33:33;23.00;99.90
2112;DHT22;1062;52.538;13.400;2023-08-17T10:36:00;23.00;99.90
2112;DHT22;1062;52.538;13.400;2023-08-17T10:38:26;23.10;99.90
2112;DHT22;1062;52.538;13.400;2023-08-17T10:41:12;23.30;99.90
2112;DHT22;1062;52.538;13.400;2023-08-17T10:43:59;23.50;99.90
2112;DHT22;1062;52.538;13.400;2023-08-17T10:46:36;24.00;99.90
2112;DHT22;1062;52.538;13.400;2023-08-17T10:49:06;24.20;99.90
2112;DHT22;1062;52.538;13.400;2023-08-17T10:51:32;24.30;99.90
2112;DHT22;1062;52.538;13.400;2023-08-17T10:54:04;24.40;99.90
2112;DHT22;1062;52.538;13.400;2023-08-17T10:56:30;24.50;99.90
2112;DHT22;1062;52.538;13.400;2023-08-17T10:59:00;24.70;99.90
2112;DHT22;1062;52.538;13.400;2023-08-17T11:01:36;24.80;99.90
2112;DHT22;1062;52.538;13.400;2023-08-17T11:04:16;24.90;99.90
2112;DHT22;1062;52.538;13.400;2023-08-17T11:06:44;24.60;99.90
2112;DHT22;1062;52.538;13.400;2023-08-17T11:09:09;24.60;99.90
2112;DHT22;1062;52.538;13.400;2023-08-17T11:11:35;24.80;99.90
2112;DHT22;1062;52.538;13.400;2023-08-17T11:14:01;24.60;99.90
2112;DHT22;1062;52.538;13.400;2023-08-17T11:16:26;24.20;99.90
2112;DHT22;1062;52.538;13.400;2023-08-17T11:18:52;24.10;99.90
2112;DHT22;1062;52.538;13.400;2023-08-17T11:21:18;24.30;99.90
2112;DHT22;1062;52.538;13.400;2023-08-17T11:23:44;24.30;99.90
2112;DHT22;1062;52.538;13.400;2023-08-17T11:26:10;24.20;99.90
2112;DHT22;1062;52.538;13.400;2023-08-17T11:28:36;24.10;99.90
2112;DHT22;1062;52.538;13.400;2023-08-17T11:31:04;24.20;99.90
2112;DHT22;1062;52.538;13.400;2023-08-17T11:33:31;24.00;99.90
2112;DHT22;1062;52.538;13.400;2023-08-17T11:35:57;24.10;99.90
2112;DHT22;1062;52.538;13.400;2023-08-17T11:38:26;24.50;99.90
2112;DHT22;1062;52.538;13.400;2023-08-17T11:40:52;24.60;99.90
2112;DHT22;1062;52.538;13.400;2023-08-17T11:43:18;24.70;99.90
2112;DHT22;1062;52.538;13.400;2023-08-17T11:45:46;24.90;99.90
2112;DHT22;1062;52.538;13.400;2023-08-17T11:48:11;25.10;99.90
2112;DHT22;1062;52.538;13.400;2023-08-17T11:50:38;25.00;99.90
2112;DHT22;1062;52.538;13.400;2023-08-17T11:53:04;25.00;99.90
2112;DHT22;1062;52.538;13.400;2023-08-17T11:55:30;24.90;99.90
2112;DHT22;1062;52.538;13.400;2023-08-17T11:57:55;24.70;99.90
2112;DHT22;1062;52.538;13.400;2023-08-17T12:00:22;24.90;99.90
2112;DHT22;1062;52.538;13.400;2023-08-17T12:02:49;24.90;99.90
2112;DHT22;1062;52.538;13.400;2023-08-17T12:05:19;25.20;99.90
2112;DHT22;1062;52.538;13.400;2023-08-17T12:07:45;25.60;99.90
2112;DHT22;1062;52.538;13.400;2023-08-17T12:10:11;25.70;99.90
2112;DHT22;1062;52.538;13.400;2023-08-17T12:12:37;25.70;99.90
2112;DHT22;1062;52.538;13.400;2023-08-17T12:15:05;25.70;99.90
2112;DHT22;1062;52.538;13.400;2023-08-17T12:17:30;25.80;99.90
2112;DHT22;1062;52.538;13.400;2023-08-17T12:19:58;25.80;99.90
2112;DHT22;1062;52.538;13.400;2023-08-17T12:22:25;25.90;99.90
2112;DHT22;1062;52.538;13.400;2023-08-17T12:24:52;26.00;99.90
2112;DHT22;1062;52.538;13.400;2023-08-17T12:27:18;26.00;99.90
2112;DHT22;1062;52.538;13.400;2023-08-17T12:29:48;26.00;99.90
2112;DHT22;1062;52.538;13.400;2023-08-17T12:32:14;26.20;99.90
2112;DHT22;1062;52.538;13.400;2023-08-17T12:34:40;26.30;99.90
2112;DHT22;1062;52.538;13.400;2023-08-17T12:37:11;26.00;99.90
2112;DHT22;1062;52.538;13.400;2023-08-17T12:39:37;25.80;99.90
2112;DHT22;1062;52.538;13.400;2023-08-17T12:42:03;26.00;99.90
2112;DHT22;1062;52.538;13.400;2023-08-17T12:44:29;26.00;99.90
2112;DHT22;1062;52.538;13.400;2023-08-17T12:46:55;26.00;99.90
2112;DHT22;1062;52.538;13.400;2023-08-17T12:49:20;26.40;99.90
2112;DHT22;1062;52.538;13.400;2023-08-17T12:51:46;26.60;99.90
2112;DHT22;1062;52.538;13.400;2023-08-17T12:54:11;26.70;99.90
2112;DHT22;1062;52.538;13.400;2023-08-17T12:56:37;26.60;99.90
2112;DHT22;1062;52.538;13.400;2023-08-17T12:59:03;26.60;99.90
2112;DHT22;1062;52.538;13.400;2023-08-17T13:01:28;26.20;99.90
2112;DHT22;1062;52.538;13.400;2023-08-17T13:03:54;26.10;99.90
2112;DHT22;1062;52.538;13.400;2023-08-17T13:06:20;26.10;99.90
2112;DHT22;1062;52.538;13.400;2023-08-17T13:08:45;26.20;99.90
2112;DHT22;1062;52.538;13.400;2023-08-17T13:11:11;26.40;99.90
2112;DHT22;1062;52.538;13.400;2023-08-17T13:13:37;26.50;99.90
2112;DHT22;1062;52.538;13.400;2023-08-17T13:16:02;26.70;99.90
2112;DHT22;1062;52.538;13.400;2023-08-17T13:18:29;26.50;99.90
2112;DHT22;1062;52.538;13.400;2023-08-17T13:20:54;26.70;99.90
2112;DHT22;1062;52.538;13.400;2023-08-17T13:23:20;26.70;99.90
2112;DHT22;1062;52.538;13.400;2023-08-17T13:25:45;26.70;99.90
2112;DHT22;1062;52.538;13.400;2023-08-17T13:28:11;26.70;99.90
2112;DHT22;1062;52.538;13.400;2023-08-17T13:30:38;26.90;99.90
2112;DHT22;1062;52.538;13.400;2023-08-17T13:33:04;26.90;99.90
2112;DHT22;1062;52.538;13.400;2023-08-17T13:35:32;26.80;99.90
2112;DHT22;1062;52.538;13.400;2023-08-17T13:37:58;26.90;99.90
2112;DHT22;1062;52.538;13.400;2023-08-17T13:40:23;27.00;99.90
2112;DHT22;1062;52.538;13.400;2023-08-17T13:42:49;27.10;99.90
2112;DHT22;1062;52.538;13.400;2023-08-17T13:45:15;26.70;99.90
2112;DHT22;1062;52.538;13.400;2023-08-17T13:47:41;26.60;99.90
2112;DHT22;1062;52.538;13.400;2023-08-17T13:50:07;26.50;99.90
2112;DHT22;1062;52.538;13.400;2023-08-17T13:52:33;26.50;99.90
2112;DHT22;1062;52.538;13.400;2023-08-17T13:54:59;26.70;99.90
2112;DHT22;1062;52.538;13.400;2023-08-17T13:57:24;26.60;99.90
2112;DHT22;1062;52.538;13.400;2023-08-17T13:59:51;26.60;99.90
2112;DHT22;1062;52.538;13.400;2023-08-17T14:02:17;26.70;99.90
2112;DHT22;1062;52.538;13.400;2023-08-17T14:04:43;26.70;99.90
2112;DHT22;1062;52.538;13.400;2023-08-17T14:07:08;26.40;99.90
2112;DHT22;1062;52.538;13.400;2023-08-17T14:09:34;26.40;99.90
2112;DHT22;1062;52.538;13.400;2023-08-17T14:12:00;26.40;99.90
2112;DHT22;1062;52.538;13.400;2023-08-17T14:14:27;26.60;99.90
2112;DHT22;1062;52.538;13.400;2023-08-17T14:16:52;26.60;99.90
2112;DHT22;1062;52.538;13.400;2023-08-17T14:19:18;26.50;99.90
2112;DHT22;1062;52.538;13.400;2023-08-17T14:21:43;26.50;99.90
2112;DHT22;1062;52.538;13.400;2023-08-17T14:24:09;26.40;99.90
2112;DHT22;1062;52.538;13.400;2023-08-17T14:26:35;26.40;99.90
2112;DHT22;1062;52.538;13.400;2023-08-17T14:29:00;26.40;99.90
2112;DHT22;1062;52.538;13.400;2023-08-17T14:31:26;26.50;99.90
2112;DHT22;1062;52.538;13.400;2023-08-17T14:33:52;26.50;99.90
2112;DHT22;1062;52.538;13.400;2023-08-17T14:36:17;26.50;99.90
2112;DHT22;1062;52.538;13.400;2023-08-17T14:38:43;26.50;99.90
2112;DHT22;1062;52.538;13.400;2023-08-17T14:41:09;26.40;99.90
2112;DHT22;1062;52.538;13.400;2023-08-17T14:43:35;26.50;99.90
2112;DHT22;1062;52.538;13.400;2023-08-17T14:46:01;26.70;99.90
2112;DHT22;1062;52.538;13.400;2023-08-17T14:48:26;26.80;99.90
2112;DHT22;1062;52.538;13.400;2023-08-17T14:50:52;26.80;99.90
2112;DHT22;1062;52.538;13.400;2023-08-17T14:53:18;26.90;99.90
2112;DHT22;1062;52.538;13.400;2023-08-17T14:55:43;27.10;99.90
2112;DHT22;1062;52.538;13.400;2023-08-17T14:58:09;27.00;99.90
2112;DHT22;1062;52.538;13.400;2023-08-17T15:00:35;27.00;99.90
2112;DHT22;1062;52.538;13.400;2023-08-17T15:03:00;27.00;99.90
2112;DHT22;1062;52.538;13.400;2023-08-17T15:05:26;26.90;99.90
2112;DHT22;1062;52.538;13.400;2023-08-17T15:07:52;27.00;99.90
2112;DHT22;1062;52.538;13.400;2023-08-17T15:10:18;27.10;99.90
2112;DHT22;1062;52.538;13.400;2023-08-17T15:12:43;27.20;99.90
2112;DHT22;1062;52.538;13.400;2023-08-17T15:15:09;26.90;99.90
2112;DHT22;1062;52.538;13.400;2023-08-17T15:17:35;26.80;99.90
2112;DHT22;1062;52.538;13.400;2023-08-17T15:20:02;26.70;99.90
2112;DHT22;1062;52.538;13.400;2023-08-17T15:22:28;26.70;99.90
2112;DHT22;1062;52.538;13.400;2023-08-17T15:24:53;26.90;99.90
2112;DHT22;1062;52.538;13.400;2023-08-17T15:27:19;26.90;99.90
2112;DHT22;1062;52.538;13.400;2023-08-17T15:29:45;27.00;99.90
2112;DHT22;1062;52.538;13.400;2023-08-17T15:32:10;26.70;99.90
2112;DHT22;1062;52.538;13.400;2023-08-17T15:34:36;26.70;99.90
2112;DHT22;1062;52.538;13.400;2023-08-17T15:37:02;26.70;99.90
2112;DHT22;1062;52.538;13.400;2023-08-17T15:39:28;26.60;99.90
2112;DHT22;1062;52.538;13.400;2023-08-17T15:41:54;26.60;99.90
2112;DHT22;1062;52.538;13.400;2023-08-17T15:44:19;26.60;99.90
2112;DHT22;1062;52.538;13.400;2023-08-17T15:46:45;26.80;99.90
2112;DHT22;1062;52.538;13.400;2023-08-17T15:49:10;26.70;99.90
2112;DHT22;1062;52.538;13.400;2023-08-17T15:51:39;26.60;99.90